KASL/ASL METAR and TAF weather

Enter ICAO airport designator
Station Type Date Time Source
KASL METAR 2018/01/23 01:35 UTC NOAA

KASL 230135Z AUTO 00000KT 10SM CLR 10/M05 A3006 RMK AO1 T01001050


Station Type Date Time Source
KASL Decoded METAR 2018/01/23 01:35 UTC NOAA

Station name not available
Jan 22, 2018 - 08:35 PM EST / 2018.01.23 0135 UTC
Wind: Calm:0
Visibility: 10 mile(s):0
Sky conditions: clear
Temperature: 50.0 F (10.0 C)
Dew Point: 23.0 F (-5.0 C)
Relative Humidity: 34%
Pressure (altimeter): 30.06 in. Hg (1017 hPa)
ob: KASL 230135Z AUTO 00000KT 10SM CLR 10/M05 A3006 RMK AO1 T01001050
cycle: 1

Station Type Date Time Source
KASL TAF UTC NOAA

Error!


Example: see airport list